Wheaton, Illinois
Current Conditions -  °F | °C
As of 11:52 AM on Friday 21 Nov 2014 (Local Time) from KDPA Reporting Station
Clear Clear  
Wind Chill: 19°   Ceiling: Unl
Heat Index: 29°   Visibility: 10mi
Dew Point:   Wind: 12mph
Humidity: 32%   Direction: 170°S
Pressure: 30.4"   Gusts: NA
Location:  41.87°N, 88.11°W
Report Text: KDPA 211752Z 17010KT 10SM CLR M02/M17 A3040 RMK AO2 SLP306 T10171167 11017 21144 58013
Loading
Personal Weather Stations






























Interactive Weather Map New forecast layout! Learn more

10-Day Weather Forecast

Advertisements
Track Severe Weather on mobile